CML2 weather

Quamichan Lake (Raven Field) Airport
Quamichan Lake, British Columbia, Canada

Public forecast

Using degrees Celsius for public forecast. Weather courtesy of forecast.io.

METAR (pilot weather report)

Closest report is Victoria International Airport, 13.3 nm (24.7 km) SE. Retrieved 2019/07/17 17:00 UTC (50 minutes ago):

CYYJ 171700Z 13009G15KT 8SM -RA FEW006 FEW011 SCT040 OVC075 15/15 A2980 RMK SF1SC1SC2AC4 SLP093 DENSITY ALT 300FT

TAF (pilot weather forecast)

Closest forecast is Victoria International Airport, 13.3 nm (24.7 km) SE. Retrieved 2019/07/17 12:42 UTC (5 hours ago):

TAF CYYJ 171140Z 1712/1812 24010KT P6SM -RA OVC060 TEMPO 1712/1720 5SM -RA BR OVC020 BECMG 1712/1714 14012KT FM172000 22015G25KT P6SM BKN030 TEMPO 1720/1802 P6SM -SHRA BKN020 FM180200 26012G22KT P6SM SCT020 RMK NXT FCST BY 171800Z